This is the latest recevied weather packets stored in our database for station/object K7MT-WX. If no packets are shown the sender has not sent any weather packets the latest 10 day(s).
| Time | Temp. | Humidity | Pressure | Rain* | Wind** | Luminosity | Snow |
|---|---|---|---|---|---|---|---|
| 1778170363 | 14.44° C | 66% | 1013.3 hPa | 0 mm | - | - | - |
| 1778169463 | 13.89° C | 67% | 1013.5 hPa | 0 mm | - | - | - |
| 1778168563 | 13.33° C | 72% | 1013.5 hPa | 0 mm | - | - | - |
| 1778167663 | 12.78° C | 72% | 1013.4 hPa | 0 mm | - | - | - |
| 1778166763 | 12.78° C | 75% | 1013.4 hPa | 0 mm | - | - | - |
| 1778165863 | 11.67° C | 80% | 1013.2 hPa | 0 mm | - | - | - |
| 1778164963 | 11.11° C | 80% | 1013.6 hPa | 0 mm | - | - | - |
| 1778164063 | 11.11° C | 81% | 1013.2 hPa | 0 mm | - | - | - |
| 1778163163 | 10.56° C | 82% | 1012.8 hPa | 0 mm | - | - | - |
| 1778162263 | 10° C | 83% | 1012.8 hPa | 0 mm | - | - | - |
| 1778161362 | 9.44° C | 87% | 1012.7 hPa | 0 mm | - | - | - |
| 1778160462 | 8.89° C | 87% | 1012.7 hPa | 0 mm | - | - | - |
| 1778159562 | 8.89° C | 86% | 1012.4 hPa | 0 mm | - | - | - |
| 1778158662 | 8.89° C | 86% | 1012.5 hPa | 0 mm | - | - | - |
| 1778157762 | 8.89° C | 85% | 1012.2 hPa | 0 mm | - | - | - |
| 1778156862 | 8.89° C | 84% | 1012.3 hPa | 0 mm | - | - | - |
| 1778155962 | 8.89° C | 86% | 1012.2 hPa | 0 mm | - | - | - |
| 1778155062 | 8.89° C | 83% | 1011.9 hPa | 0 mm | - | - | - |
| 1778154162 | 9.44° C | 82% | 1011.8 hPa | 0 mm | - | - | - |
| 1778153262 | 10° C | 82% | 1012 hPa | 0 mm | - | - | - |
| 1778152362 | 10° C | 81% | 1012.1 hPa | 0 mm | - | - | - |
| 1778151462 | 10.56° C | 79% | 1012.1 hPa | 0.25 mm | - | - | - |
| 1778150562 | 10.56° C | 79% | 1012 hPa | 1.78 mm | - | - | - |
| 1778149662 | 10.56° C | 75% | 1012.1 hPa | 1.78 mm | - | - | - |
| 1778148762 | 10.56° C | 76% | 1012.5 hPa | 1.78 mm | - | - | - |
* Rain latest hour (hover to see other rain measurements)
** Current wind speed in m/s (hover to see current wind gust speed)